TimeCDT,TemperatureF,Dew PointF,Humidity,Sea Level PressureIn,VisibilityMPH,Wind Direction,Wind SpeedMPH,Gust SpeedMPH,PrecipitationIn,Events,Conditions,WindDirDegrees,DateUTC
12:15 AM,46.4,42.8,87,30.08,10.0,Calm,Calm,-,N/A,,Clear,0,2013-10-11 05:15:00
12:35 AM,48.2,42.8,82,30.08,5.0,Calm,Calm,-,N/A,,Clear,0,2013-10-11 05:35:00
12:55 AM,46.4,42.8,87,30.07,5.0,Calm,Calm,-,N/A,,Clear,0,2013-10-11 05:55:00
1:15 AM,46.4,41.0,81,30.08,10.0,Calm,Calm,-,N/A,,Clear,0,2013-10-11 06:15:00
1:35 AM,46.4,41.0,81,30.08,10.0,East,4.6,-,N/A,,Clear,90,2013-10-11 06:35:00
1:55 AM,46.4,41.0,81,30.08,10.0,East,3.5,-,N/A,,Clear,90,2013-10-11 06:55:00
2:15 AM,46.4,41.0,81,30.08,10.0,Calm,Calm,-,N/A,,Clear,0,2013-10-11 07:15:00
2:35 AM,46.4,39.2,76,30.07,10.0,Calm,Calm,-,N/A,,Clear,0,2013-10-11 07:35:00
2:55 AM,46.4,39.2,76,30.07,10.0,Calm,Calm,-,N/A,,Clear,0,2013-10-11 07:55:00
3:15 AM,44.6,39.2,81,30.07,10.0,East,5.8,-,N/A,,Clear,90,2013-10-11 08:15:00
3:35 AM,44.6,39.2,81,30.07,10.0,East,4.6,-,N/A,,Clear,80,2013-10-11 08:35:00
3:55 AM,44.6,37.4,76,30.08,10.0,East,4.6,-,N/A,,Clear,80,2013-10-11 08:55:00
4:15 AM,44.6,39.2,81,30.08,10.0,ENE,3.5,-,N/A,,Clear,70,2013-10-11 09:15:00
4:35 AM,44.6,39.2,81,30.08,10.0,ENE,3.5,-,N/A,,Clear,70,2013-10-11 09:35:00
4:55 AM,44.6,39.2,81,30.08,10.0,Calm,Calm,-,N/A,,Clear,0,2013-10-11 09:55:00
5:15 AM,42.8,37.4,81,30.08,10.0,ENE,3.5,-,N/A,,Clear,70,2013-10-11 10:15:00
5:35 AM,44.6,39.2,81,30.09,10.0,Calm,Calm,-,N/A,,Clear,0,2013-10-11 10:35:00
5:55 AM,42.8,37.4,81,30.10,10.0,Calm,Calm,-,N/A,,Clear,0,2013-10-11 10:55:00
6:15 AM,42.8,37.4,81,30.11,10.0,Calm,Calm,-,N/A,,Clear,0,2013-10-11 11:15:00
6:35 AM,42.8,37.4,81,30.11,10.0,Calm,Calm,-,N/A,,Clear,0,2013-10-11 11:35:00
6:55 AM,41.0,37.4,87,30.11,8.0,Calm,Calm,-,N/A,,Clear,0,2013-10-11 11:55:00
7:15 AM,42.8,39.2,87,30.11,9.0,Calm,Calm,-,N/A,,Clear,0,2013-10-11 12:15:00
7:35 AM,44.6,39.2,81,30.11,8.0,East,3.5,-,N/A,,Clear,80,2013-10-11 12:35:00
7:55 AM,46.4,42.8,87,30.11,7.0,ENE,3.5,-,N/A,,Clear,70,2013-10-11 12:55:00
8:15 AM,50.0,44.6,82,30.11,8.0,Calm,Calm,-,N/A,,Clear,0,2013-10-11 13:15:00
8:35 AM,51.8,46.4,82,30.11,9.0,East,3.5,-,N/A,,Clear,80,2013-10-11 13:35:00
8:55 AM,55.4,46.4,72,30.11,10.0,East,3.5,-,N/A,,Clear,80,2013-10-11 13:55:00
9:15 AM,57.2,48.2,72,30.11,10.0,ESE,4.6,-,N/A,,Clear,120,2013-10-11 14:15:00
9:35 AM,59.0,50.0,72,30.10,10.0,ESE,3.5,-,N/A,,Clear,120,2013-10-11 14:35:00
9:55 AM,60.8,51.8,72,30.10,10.0,East,4.6,-,N/A,,Clear,100,2013-10-11 14:55:00
10:15 AM,-9999,-9999,N/A,30.09,10.0,Calm,Calm,-,N/A,,Clear,0,2013-10-11 15:15:00
10:35 AM,66.2,48.2,52,30.09,10.0,SE,3.5,-,N/A,,Clear,140,2013-10-11 15:35:00
10:55 AM,68.0,48.2,49,30.09,10.0,SE,6.9,-,N/A,,Clear,130,2013-10-11 15:55:00
11:15 AM,69.8,48.2,46,30.08,10.0,East,6.9,-,N/A,,Clear,90,2013-10-11 16:15:00
11:35 AM,71.6,46.4,41,30.08,10.0,ENE,5.8,-,N/A,,Clear,60,2013-10-11 16:35:00
11:55 AM,71.6,48.2,43,30.08,10.0,ESE,6.9,-,N/A,,Clear,110,2013-10-11 16:55:00
12:15 PM,73.4,48.2,41,30.08,10.0,SSE,6.9,-,N/A,,Clear,150,2013-10-11 17:15:00
12:35 PM,73.4,46.4,38,30.07,10.0,East,3.5,-,N/A,,Clear,80,2013-10-11 17:35:00
12:55 PM,73.4,46.4,38,30.06,10.0,South,8.1,-,N/A,,Clear,170,2013-10-11 17:55:00
1:15 PM,75.2,44.6,34,30.06,10.0,SSE,4.6,-,N/A,,Clear,160,2013-10-11 18:15:00
1:35 PM,73.4,44.6,36,30.05,1.5,Calm,Calm,-,N/A,,Clear,0,2013-10-11 18:35:00
1:55 PM,75.2,46.4,36,30.04,7.0,Calm,Calm,-,N/A,,Clear,0,2013-10-11 18:55:00
2:15 PM,75.2,46.4,36,30.03,10.0,South,5.8,-,N/A,,Clear,170,2013-10-11 19:15:00
2:35 PM,75.2,46.4,36,30.03,10.0,East,5.8,-,N/A,,Clear,100,2013-10-11 19:35:00
2:55 PM,75.2,48.2,38,30.03,10.0,SSE,5.8,-,N/A,,Clear,160,2013-10-11 19:55:00
3:15 PM,75.2,48.2,38,30.02,10.0,SSE,8.1,-,N/A,,Clear,150,2013-10-11 20:15:00
3:35 PM,77.0,48.2,36,30.01,10.0,SSE,10.4,-,N/A,,Clear,150,2013-10-11 20:35:00
3:55 PM,75.2,48.2,38,30.01,10.0,SE,10.4,-,N/A,,Clear,140,2013-10-11 20:55:00
4:15 PM,75.2,48.2,38,30.01,10.0,SE,6.9,-,N/A,,Clear,130,2013-10-11 21:15:00
4:35 PM,75.2,48.2,38,30.01,10.0,SSE,5.8,-,N/A,,Clear,150,2013-10-11 21:35:00
4:55 PM,75.2,50.0,41,30.01,10.0,SSE,5.8,-,N/A,,Clear,150,2013-10-11 21:55:00
5:15 PM,73.4,50.0,44,30.01,10.0,South,5.8,-,N/A,,Clear,180,2013-10-11 22:15:00
5:35 PM,73.4,51.8,47,30.01,10.0,SSW,4.6,-,N/A,,Clear,210,2013-10-11 22:35:00
5:55 PM,73.4,48.2,41,30.01,10.0,SSW,4.6,-,N/A,,Clear,200,2013-10-11 22:55:00
6:15 PM,69.8,48.2,46,30.01,10.0,SSW,5.8,-,N/A,,Clear,210,2013-10-11 23:15:00
6:35 PM,64.4,48.2,56,30.01,10.0,SSW,4.6,-,N/A,,Clear,200,2013-10-11 23:35:00
6:55 PM,62.6,48.2,59,30.01,10.0,South,3.5,-,N/A,,Clear,170,2013-10-11 23:55:00
7:15 PM,60.8,48.2,63,30.01,10.0,Calm,Calm,-,N/A,,Clear,0,2013-10-12 00:15:00
7:35 PM,59.0,48.2,67,30.02,10.0,SSE,3.5,-,N/A,,Clear,150,2013-10-12 00:35:00
7:55 PM,57.2,48.2,72,30.02,10.0,SE,3.5,-,N/A,,Clear,140,2013-10-12 00:55:00
8:15 PM,57.2,48.2,72,30.02,10.0,SE,3.5,-,N/A,,Clear,130,2013-10-12 01:15:00
8:35 PM,55.4,48.2,77,30.02,10.0,Calm,Calm,-,N/A,,Clear,0,2013-10-12 01:35:00
8:55 PM,53.6,46.4,77,30.02,10.0,ESE,4.6,-,N/A,,Clear,110,2013-10-12 01:55:00
9:15 PM,53.6,46.4,77,30.02,10.0,ESE,5.8,-,N/A,,Clear,120,2013-10-12 02:15:00
9:35 PM,53.6,46.4,77,30.02,10.0,East,3.5,-,N/A,,Clear,100,2013-10-12 02:35:00
9:55 PM,53.6,46.4,77,30.02,10.0,ESE,4.6,-,N/A,,Clear,120,2013-10-12 02:55:00
10:15 PM,53.6,46.4,77,30.03,10.0,Calm,Calm,-,N/A,,Clear,0,2013-10-12 03:15:00
10:35 PM,53.6,46.4,77,30.03,10.0,South,3.5,-,N/A,,Clear,180,2013-10-12 03:35:00
10:55 PM,53.6,46.4,77,30.03,10.0,Calm,Calm,-,N/A,,Clear,0,2013-10-12 03:55:00
11:15 PM,51.8,44.6,76,30.03,10.0,Calm,Calm,-,N/A,,Clear,0,2013-10-12 04:15:00
11:35 PM,51.8,44.6,76,30.04,10.0,Calm,Calm,-,N/A,,Clear,0,2013-10-12 04:35:00
11:55 PM,50.0,44.6,82,30.04,10.0,Calm,Calm,-,N/A,,Clear,0,2013-10-12 04:55:00